createdAt,value
2023-01-13T00:00:50.843Z,6.61
2023-01-13T00:03:17.496Z,6.65
2023-01-13T00:05:44.054Z,6.63
2023-01-13T00:08:10.569Z,6.63
2023-01-13T00:10:37.107Z,6.62
2023-01-13T00:13:05.198Z,6.65
2023-01-13T00:15:33.012Z,6.71
2023-01-13T00:17:59.637Z,6.69
2023-01-13T00:20:26.224Z,6.64
2023-01-13T00:22:52.718Z,6.64
2023-01-13T00:25:19.204Z,6.63
2023-01-13T00:27:45.684Z,6.52
2023-01-13T00:30:12.617Z,6.62
2023-01-13T00:32:39.187Z,6.61
2023-01-13T00:35:06.383Z,6.47
2023-01-13T00:37:35.911Z,6.48
2023-01-13T00:40:02.472Z,6.54
2023-01-13T00:42:47.322Z,6.39
2023-01-13T00:45:13.967Z,6.45
2023-01-13T00:47:40.620Z,6.39
2023-01-13T00:50:07.542Z,6.37
2023-01-13T00:52:34.233Z,6.43
2023-01-13T00:55:01.036Z,6.33
2023-01-13T00:57:27.567Z,6.39
2023-01-13T00:59:54.104Z,6.28
2023-01-13T01:02:20.625Z,6.34
2023-01-13T01:04:47.277Z,6.26
2023-01-13T01:07:13.850Z,6.21
2023-01-13T01:09:40.349Z,6.19
2023-01-13T01:12:07.068Z,6.06
2023-01-13T01:14:33.917Z,6.16
2023-01-13T01:17:00.451Z,6.07
2023-01-13T01:19:26.942Z,5.94
2023-01-13T01:21:55.005Z,5.99
2023-01-13T01:24:21.860Z,5.90
2023-01-13T01:26:48.352Z,5.80
2023-01-13T01:29:15.652Z,5.82
2023-01-13T01:31:43.102Z,5.80
2023-01-13T01:34:09.751Z,5.80
2023-01-13T01:36:36.720Z,5.81
2023-01-13T01:39:04.387Z,5.83
2023-01-13T01:41:33.532Z,5.83
2023-01-13T01:44:08.325Z,5.92
2023-01-13T01:46:38.216Z,5.88
2023-01-13T01:49:10.897Z,5.90
2023-01-13T01:51:44.086Z,5.83
2023-01-13T01:54:15.560Z,5.88
2023-01-13T01:56:44.509Z,5.88
2023-01-13T01:59:12.091Z,5.82
2023-01-13T02:01:41.185Z,5.85
2023-01-13T02:04:14.567Z,5.86
2023-01-13T02:06:42.387Z,5.89
2023-01-13T02:09:09.618Z,5.88
2023-01-13T02:11:54.837Z,5.86
2023-01-13T02:14:28.240Z,5.94
2023-01-13T02:17:05.742Z,6.00
2023-01-13T02:20:18.850Z,6.04
2023-01-13T02:22:52.345Z,5.99
2023-01-13T02:26:17.271Z,6.05
2023-01-13T02:29:21.086Z,6.06
2023-01-13T02:31:51.208Z,5.99
2023-01-13T02:34:38.962Z,6.02
2023-01-13T02:37:19.132Z,6.01
2023-01-13T02:39:52.811Z,6.02
2023-01-13T02:42:46.599Z,6.05
2023-01-13T02:45:18.801Z,6.05
2023-01-13T02:47:50.220Z,6.04
2023-01-13T02:50:20.128Z,6.12
2023-01-13T02:52:50.760Z,6.09
2023-01-13T02:55:19.713Z,5.97
2023-01-13T02:57:48.092Z,5.97
2023-01-13T03:00:16.583Z,6.04
2023-01-13T03:02:43.231Z,6.05
2023-01-13T03:05:15.262Z,5.98
2023-01-13T03:07:49.418Z,6.03
2023-01-13T03:10:50.097Z,5.88
2023-01-13T03:13:28.797Z,5.82
2023-01-13T03:16:14.047Z,5.91
2023-01-13T03:18:52.456Z,5.84
2023-01-13T03:21:25.741Z,5.89
2023-01-13T03:24:02.795Z,5.84
2023-01-13T03:26:46.501Z,5.84
2023-01-13T03:29:28.829Z,5.83
2023-01-13T03:32:01.587Z,5.82
2023-01-13T03:34:34.491Z,5.76
2023-01-13T03:37:05.527Z,5.70
2023-01-13T03:39:36.516Z,5.64
2023-01-13T03:42:11.842Z,5.73
2023-01-13T03:44:55.421Z,5.82
2023-01-13T03:47:33.397Z,5.87
2023-01-13T03:50:09.529Z,5.69
2023-01-13T03:52:48.428Z,5.67
2023-01-13T03:55:22.837Z,5.62
2023-01-13T03:57:59.845Z,5.67
2023-01-13T04:00:32.158Z,5.61
2023-01-13T04:03:07.814Z,5.66
2023-01-13T04:05:39.981Z,5.65
2023-01-13T04:08:23.115Z,5.57
2023-01-13T04:10:58.616Z,5.61
2023-01-13T04:13:30.065Z,5.47
2023-01-13T04:15:56.900Z,5.51
2023-01-13T04:18:33.515Z,5.51
2023-01-13T04:21:01.460Z,5.52
2023-01-13T04:23:28.781Z,5.52
2023-01-13T04:25:55.773Z,5.59
2023-01-13T04:28:23.453Z,5.55
2023-01-13T04:30:50.305Z,5.57
2023-01-13T04:33:18.388Z,5.64
2023-01-13T04:35:46.394Z,5.65
2023-01-13T04:38:22.139Z,5.72
2023-01-13T04:40:48.884Z,5.72
2023-01-13T04:43:15.977Z,5.68
2023-01-13T04:45:43.709Z,5.72
2023-01-13T04:48:10.926Z,5.73
2023-01-13T04:50:37.484Z,5.73
2023-01-13T04:53:04.177Z,5.75
2023-01-13T04:55:31.892Z,5.82
2023-01-13T04:58:16.366Z,5.84
2023-01-13T05:00:42.939Z,5.78
2023-01-13T05:03:09.716Z,5.76
2023-01-13T05:05:36.405Z,5.76
2023-01-13T05:08:03.343Z,5.79
2023-01-13T05:10:30.077Z,5.81
2023-01-13T05:13:15.542Z,5.76
2023-01-13T05:16:01.708Z,5.75
2023-01-13T05:18:29.943Z,5.80
2023-01-13T05:20:56.500Z,5.74
2023-01-13T05:23:41.775Z,5.71
2023-01-13T05:26:08.367Z,5.70
2023-01-13T05:28:35.052Z,5.72
2023-01-13T05:31:01.940Z,5.75
2023-01-13T05:33:28.605Z,5.76
2023-01-13T05:35:55.133Z,5.71
2023-01-13T05:38:21.619Z,5.79
2023-01-13T05:41:06.616Z,5.78
2023-01-13T05:43:34.968Z,5.79
2023-01-13T05:46:10.636Z,5.81
2023-01-13T05:48:39.951Z,5.93
2023-01-13T05:51:09.480Z,5.86
2023-01-13T05:53:36.917Z,5.91
2023-01-13T05:56:07.933Z,5.88
2023-01-13T05:58:35.138Z,5.95
2023-01-13T06:01:04.401Z,5.86
2023-01-13T06:03:31.274Z,5.92
2023-01-13T06:06:01.718Z,5.97
2023-01-13T06:08:28.662Z,6.00
2023-01-13T06:10:55.291Z,6.00
2023-01-13T06:13:21.947Z,6.01
2023-01-13T06:15:48.533Z,6.03
2023-01-13T06:18:15.210Z,5.99
2023-01-13T06:20:41.722Z,5.97
2023-01-13T06:23:10.885Z,6.01
2023-01-13T06:25:56.523Z,5.99
2023-01-13T06:28:23.008Z,5.95
2023-01-13T06:30:52.629Z,6.00
2023-01-13T06:33:24.535Z,6.03
2023-01-13T06:35:56.917Z,5.99
2023-01-13T06:38:25.772Z,5.95
2023-01-13T06:40:54.498Z,6.01
2023-01-13T06:43:21.288Z,6.02
2023-01-13T06:45:56.108Z,5.99
2023-01-13T06:48:32.973Z,6.04
2023-01-13T06:50:59.716Z,6.02
2023-01-13T06:53:26.403Z,6.03
2023-01-13T06:55:53.005Z,6.08
2023-01-13T06:58:19.502Z,6.12
2023-01-13T07:00:49.884Z,6.10
2023-01-13T07:03:18.227Z,6.12
2023-01-13T07:05:53.479Z,6.15
2023-01-13T07:08:20.636Z,6.21
2023-01-13T07:10:47.163Z,6.18
2023-01-13T07:13:32.616Z,6.18
2023-01-13T07:16:01.841Z,6.17
2023-01-13T07:18:31.758Z,6.19
2023-01-13T07:21:00.897Z,6.18
2023-01-13T07:23:30.188Z,6.18
2023-01-13T07:25:57.977Z,6.22
2023-01-13T07:28:25.961Z,6.29
2023-01-13T07:30:53.146Z,6.19
2023-01-13T07:33:20.344Z,6.24
2023-01-13T07:35:48.228Z,6.29
2023-01-13T07:38:15.501Z,6.96
2023-01-13T07:40:42.025Z,7.38
2023-01-13T07:43:30.874Z,6.57
2023-01-13T07:45:59.011Z,6.46
2023-01-13T07:48:26.868Z,6.42
2023-01-13T07:50:54.068Z,6.43
2023-01-13T07:53:21.525Z,6.36
2023-01-13T07:55:48.605Z,6.35
2023-01-13T07:58:15.126Z,6.39
2023-01-13T08:00:41.832Z,6.38
2023-01-13T08:03:08.413Z,6.39
2023-01-13T08:05:35.616Z,6.37
2023-01-13T08:08:02.323Z,6.44
2023-01-13T08:10:28.939Z,6.43
2023-01-13T08:13:13.804Z,6.45
2023-01-13T08:15:40.401Z,6.41
2023-01-13T08:18:06.980Z,6.44
2023-01-13T08:20:33.586Z,6.45
2023-01-13T08:23:01.058Z,6.48
2023-01-13T08:25:29.393Z,6.49
2023-01-13T08:27:56.055Z,6.50
2023-01-13T08:30:23.090Z,6.55
2023-01-13T08:32:50.871Z,6.51
2023-01-13T08:35:18.115Z,6.59
2023-01-13T08:37:46.940Z,6.58
2023-01-13T08:40:14.978Z,6.60
2023-01-13T08:42:41.970Z,6.65
2023-01-13T08:45:09.779Z,6.71
2023-01-13T08:47:36.447Z,6.67
2023-01-13T08:50:03.474Z,6.72
2023-01-13T08:52:30.309Z,6.75
2023-01-13T08:54:57.061Z,7.00
2023-01-13T08:57:23.807Z,7.23
2023-01-13T08:59:50.371Z,7.22
2023-01-13T09:02:21.239Z,6.99
2023-01-13T09:04:48.160Z,6.98
2023-01-13T09:07:15.888Z,6.85
2023-01-13T09:09:42.736Z,6.94
2023-01-13T09:12:33.440Z,6.97
2023-01-13T09:15:00.381Z,7.05
2023-01-13T09:17:27.628Z,7.07
2023-01-13T09:19:54.219Z,7.09
2023-01-13T09:22:21.979Z,7.08
2023-01-13T09:24:48.582Z,7.05
2023-01-13T09:27:15.775Z,7.15
2023-01-13T09:29:42.958Z,7.18
2023-01-13T09:32:13.431Z,7.22
2023-01-13T09:34:58.937Z,7.30
2023-01-13T09:37:29.721Z,7.50
2023-01-13T09:39:56.372Z,7.30
2023-01-13T09:43:05.214Z,7.27
2023-01-13T09:45:41.374Z,7.37
2023-01-13T09:48:35.016Z,7.27
2023-01-13T09:51:18.719Z,7.32
2023-01-13T09:53:55.856Z,7.23
2023-01-13T09:56:25.958Z,7.36
2023-01-13T09:58:52.961Z,7.43
2023-01-13T10:01:46.136Z,7.35
2023-01-13T10:04:15.273Z,7.51
2023-01-13T10:06:50.035Z,7.50
2023-01-13T10:09:31.227Z,7.55
2023-01-13T10:12:18.946Z,7.63
2023-01-13T10:14:56.086Z,7.65
2023-01-13T10:17:43.119Z,7.64
2023-01-13T10:20:50.851Z,7.64
2023-01-13T10:23:42.122Z,7.72
2023-01-13T10:26:27.922Z,7.72
2023-01-13T10:28:56.137Z,8.06
2023-01-13T10:31:24.576Z,8.13
2023-01-13T10:34:04.091Z,7.95
2023-01-13T10:36:30.826Z,7.91
2023-01-13T10:39:23.540Z,7.93
2023-01-13T10:42:01.164Z,8.00
2023-01-13T10:44:27.928Z,8.11
2023-01-13T10:46:57.151Z,8.06
2023-01-13T10:49:36.490Z,8.16
2023-01-13T10:52:05.719Z,8.08
2023-01-13T10:54:53.465Z,8.18
2023-01-13T10:57:27.153Z,8.41
2023-01-13T10:59:54.876Z,8.23
2023-01-13T11:02:36.056Z,8.28
2023-01-13T11:05:24.765Z,8.29
2023-01-13T11:07:54.507Z,8.38
2023-01-13T11:10:27.233Z,8.41
2023-01-13T11:13:05.610Z,8.47
2023-01-13T11:16:03.457Z,8.46
2023-01-13T11:19:02.220Z,8.45
2023-01-13T11:21:38.533Z,8.35
2023-01-13T11:24:25.687Z,8.40
2023-01-13T11:27:02.145Z,8.38
2023-01-13T11:29:41.477Z,8.32
2023-01-13T11:32:16.870Z,8.33
2023-01-13T11:34:47.213Z,8.48
2023-01-13T11:37:30.674Z,8.50
2023-01-13T11:40:23.402Z,8.46
2023-01-13T11:42:55.941Z,8.57
2023-01-13T11:45:44.122Z,8.58
2023-01-13T11:48:21.065Z,8.41
2023-01-13T11:50:55.201Z,8.45
2023-01-13T11:53:30.989Z,8.50
2023-01-13T11:56:31.568Z,8.46
2023-01-13T11:59:22.866Z,8.45
2023-01-13T12:02:02.494Z,8.61
2023-01-13T12:04:49.291Z,8.64
2023-01-13T12:07:28.534Z,8.48
2023-01-13T12:10:09.426Z,8.54
2023-01-13T12:12:54.661Z,8.45
2023-01-13T12:15:21.746Z,8.26
2023-01-13T12:18:19.310Z,8.37
2023-01-13T12:21:04.456Z,8.37
2023-01-13T12:23:37.268Z,8.42
2023-01-13T12:26:11.657Z,8.37
2023-01-13T12:29:06.704Z,8.44
2023-01-13T12:31:39.645Z,8.39
2023-01-13T12:34:19.820Z,8.45
2023-01-13T12:37:03.998Z,8.37
2023-01-13T12:40:11.188Z,8.45
2023-01-13T12:43:11.388Z,8.47
2023-01-13T12:45:38.002Z,8.48
2023-01-13T12:48:05.135Z,8.54
2023-01-13T12:50:31.581Z,8.53
2023-01-13T12:53:19.374Z,8.56
2023-01-13T12:55:51.257Z,8.60
2023-01-13T12:58:25.998Z,8.59
2023-01-13T13:01:02.252Z,8.65
2023-01-13T13:03:33.502Z,8.58
2023-01-13T13:06:22.945Z,8.59
2023-01-13T13:09:24.035Z,8.69
2023-01-13T13:11:59.653Z,8.64
2023-01-13T13:14:38.209Z,8.61
2023-01-13T13:17:19.794Z,8.61
2023-01-13T13:19:49.001Z,8.63
2023-01-13T13:22:19.243Z,8.59
2023-01-13T13:24:48.639Z,8.58
2023-01-13T13:27:20.426Z,8.61
2023-01-13T13:30:17.259Z,8.58
2023-01-13T13:33:10.718Z,8.57
2023-01-13T13:35:52.074Z,8.58
2023-01-13T13:39:22.809Z,8.60
2023-01-13T13:42:12.401Z,8.54
2023-01-13T13:45:01.278Z,8.60
2023-01-13T13:47:38.441Z,8.56
2023-01-13T13:50:09.087Z,8.53
2023-01-13T13:52:42.757Z,8.55
2023-01-13T13:55:18.780Z,8.54
2023-01-13T13:57:53.962Z,8.54
2023-01-13T14:00:49.862Z,8.49
2023-01-13T14:03:26.939Z,8.40
2023-01-13T14:06:04.805Z,8.44
2023-01-13T14:08:34.848Z,8.47
2023-01-13T14:11:01.671Z,8.42
2023-01-13T14:13:30.912Z,8.44
2023-01-13T14:16:02.029Z,8.42
2023-01-13T14:18:32.205Z,8.39
2023-01-13T14:21:02.361Z,8.58
2023-01-13T14:23:32.385Z,8.57
2023-01-13T14:26:08.859Z,8.33
2023-01-13T14:28:38.781Z,8.25
2023-01-13T14:31:08.540Z,8.27
2023-01-13T14:33:39.106Z,8.35
2023-01-13T14:36:12.008Z,8.32
2023-01-13T14:38:38.537Z,8.25
2023-01-13T14:41:22.619Z,8.16
2023-01-13T14:43:50.860Z,8.19
2023-01-13T14:46:18.003Z,8.12
2023-01-13T14:48:48.229Z,8.11
2023-01-13T14:51:24.217Z,8.09
2023-01-13T14:53:51.311Z,8.14
2023-01-13T14:56:50.525Z,8.16
2023-01-13T14:59:43.099Z,8.14
2023-01-13T15:02:25.183Z,8.08
2023-01-13T15:04:54.361Z,8.14
2023-01-13T15:07:27.120Z,8.01
2023-01-13T15:09:56.313Z,7.95
2023-01-13T15:12:35.833Z,8.03
2023-01-13T15:15:05.213Z,8.02
2023-01-13T15:17:32.356Z,8.12
2023-01-13T15:20:00.913Z,8.14
2023-01-13T15:22:29.061Z,8.10
2023-01-13T15:24:56.986Z,8.06
2023-01-13T15:27:26.307Z,8.10
2023-01-13T15:29:52.866Z,8.14
2023-01-13T15:32:21.493Z,8.16
2023-01-13T15:34:48.797Z,8.14
2023-01-13T15:37:18.058Z,8.19
2023-01-13T15:39:44.540Z,8.24
2023-01-13T15:42:31.543Z,8.24
2023-01-13T15:45:17.451Z,8.26
2023-01-13T15:47:44.945Z,8.30
2023-01-13T15:50:18.408Z,8.32
2023-01-13T15:52:45.009Z,8.33
2023-01-13T15:55:11.863Z,8.35
2023-01-13T15:57:41.696Z,8.35
2023-01-13T16:00:15.791Z,8.39
2023-01-13T16:02:44.529Z,8.40
2023-01-13T16:05:11.100Z,8.43
2023-01-13T16:07:38.527Z,8.40
2023-01-13T16:10:14.739Z,8.43
2023-01-13T16:12:41.710Z,8.44
2023-01-13T16:15:09.928Z,8.41
2023-01-13T16:17:36.532Z,8.45
2023-01-13T16:20:03.509Z,8.42
2023-01-13T16:22:30.438Z,8.48
2023-01-13T16:24:56.971Z,8.43
2023-01-13T16:27:25.500Z,8.46
2023-01-13T16:29:52.756Z,8.45
2023-01-13T16:32:21.074Z,8.50
2023-01-13T16:34:47.999Z,8.51
2023-01-13T16:37:23.894Z,8.53
2023-01-13T16:39:51.303Z,8.55
2023-01-13T16:42:17.972Z,8.54
2023-01-13T16:44:44.488Z,8.57
2023-01-13T16:47:15.784Z,8.55
2023-01-13T16:49:42.765Z,8.56
2023-01-13T16:52:09.517Z,8.59
2023-01-13T16:54:36.144Z,8.60
2023-01-13T16:57:02.672Z,8.55
2023-01-13T16:59:29.420Z,8.56
2023-01-13T17:01:56.004Z,8.59
2023-01-13T17:04:23.588Z,8.62
2023-01-13T17:07:00.513Z,8.54
2023-01-13T17:09:28.448Z,8.48
2023-01-13T17:11:55.429Z,8.40
2023-01-13T17:14:23.604Z,8.45
2023-01-13T17:16:53.543Z,8.48
2023-01-13T17:19:22.889Z,8.50
2023-01-13T17:21:51.159Z,8.52
2023-01-13T17:24:18.151Z,8.55
2023-01-13T17:26:49.006Z,8.55
2023-01-13T17:29:25.211Z,8.56
2023-01-13T17:31:52.821Z,8.58
2023-01-13T17:34:21.395Z,8.63
2023-01-13T17:36:49.182Z,8.63
2023-01-13T17:39:18.654Z,8.59
2023-01-13T17:41:45.682Z,8.59
2023-01-13T17:44:16.684Z,8.59
2023-01-13T17:46:43.772Z,8.58
2023-01-13T17:49:14.861Z,8.61
2023-01-13T17:51:41.601Z,8.57
2023-01-13T17:54:12.141Z,8.63
2023-01-13T17:56:40.004Z,8.60
2023-01-13T17:59:06.967Z,8.59
2023-01-13T18:01:34.602Z,8.56
2023-01-13T18:04:01.196Z,8.57
2023-01-13T18:06:28.369Z,8.49
2023-01-13T18:08:55.151Z,8.49
2023-01-13T18:11:22.544Z,8.55
2023-01-13T18:13:50.724Z,8.48
2023-01-13T18:16:19.257Z,8.46
2023-01-13T18:18:48.661Z,8.42
2023-01-13T18:21:42.980Z,8.44
2023-01-13T18:24:33.835Z,8.31
2023-01-13T18:27:21.446Z,8.31
2023-01-13T18:29:53.666Z,8.35
2023-01-13T18:32:21.712Z,8.37
2023-01-13T18:34:49.106Z,8.35
2023-01-13T18:37:17.744Z,8.36
2023-01-13T18:39:44.384Z,8.44
2023-01-13T18:42:29.878Z,8.38
2023-01-13T18:44:57.966Z,8.32
2023-01-13T18:47:26.222Z,8.45
2023-01-13T18:49:52.757Z,8.40
2023-01-13T18:52:19.391Z,8.42
2023-01-13T18:54:46.176Z,8.42
2023-01-13T18:57:13.725Z,8.44
2023-01-13T18:59:40.528Z,8.45
2023-01-13T19:02:15.097Z,8.37
2023-01-13T19:04:42.207Z,8.43
2023-01-13T19:07:12.244Z,8.35
2023-01-13T19:09:39.735Z,8.35
2023-01-13T19:12:11.664Z,8.34
2023-01-13T19:14:38.239Z,8.41
2023-01-13T19:17:09.789Z,8.40
2023-01-13T19:20:10.072Z,8.42
2023-01-13T19:22:36.696Z,8.46
2023-01-13T19:25:04.232Z,8.42
2023-01-13T19:27:31.504Z,8.46
2023-01-13T19:30:00.629Z,8.43
2023-01-13T19:32:27.843Z,8.44
2023-01-13T19:34:56.309Z,8.38
2023-01-13T19:37:22.872Z,8.42
2023-01-13T19:39:49.494Z,8.35
2023-01-13T19:42:34.525Z,8.35
2023-01-13T19:45:19.471Z,8.36
2023-01-13T19:47:46.175Z,8.37
2023-01-13T19:50:13.929Z,8.29
2023-01-13T19:52:42.201Z,8.29
2023-01-13T19:55:10.015Z,8.31
2023-01-13T19:57:37.797Z,8.31
2023-01-13T20:00:09.981Z,8.31
2023-01-13T20:02:37.149Z,8.27
2023-01-13T20:05:06.576Z,8.27
2023-01-13T20:07:34.604Z,8.24
2023-01-13T20:10:01.812Z,8.23
2023-01-13T20:12:29.647Z,8.25
2023-01-13T20:14:56.299Z,8.27
2023-01-13T20:17:26.483Z,8.20
2023-01-13T20:19:53.148Z,8.20
2023-01-13T20:22:19.809Z,8.15
2023-01-13T20:24:46.304Z,8.11
2023-01-13T20:27:12.933Z,8.16
2023-01-13T20:29:39.762Z,8.12
2023-01-13T20:32:06.365Z,8.13
2023-01-13T20:34:33.021Z,8.12
2023-01-13T20:37:00.397Z,8.16
2023-01-13T20:39:27.009Z,8.13
2023-01-13T20:42:12.998Z,8.09
2023-01-13T20:44:39.922Z,8.03
2023-01-13T20:47:06.764Z,8.03
2023-01-13T20:49:36.141Z,7.99
2023-01-13T20:52:09.285Z,7.95
2023-01-13T20:54:36.948Z,7.93
2023-01-13T20:57:05.149Z,7.91
2023-01-13T20:59:31.687Z,7.92
2023-01-13T21:01:58.338Z,7.91
2023-01-13T21:04:25.560Z,7.89
2023-01-13T21:06:52.640Z,7.93
2023-01-13T21:09:19.516Z,7.86
2023-01-13T21:12:04.988Z,7.87
2023-01-13T21:14:50.199Z,7.82
2023-01-13T21:17:35.034Z,7.85
2023-01-13T21:20:04.116Z,7.82
2023-01-13T21:22:31.149Z,7.77
2023-01-13T21:24:58.599Z,7.82
2023-01-13T21:27:26.022Z,7.75
2023-01-13T21:29:52.556Z,7.80
2023-01-13T21:32:19.203Z,7.73
2023-01-13T21:34:45.772Z,7.67
2023-01-13T21:37:12.285Z,7.66
2023-01-13T21:39:38.864Z,7.62
2023-01-13T21:42:23.880Z,7.62
2023-01-13T21:45:08.619Z,7.58
2023-01-13T21:47:50.373Z,7.57
2023-01-13T21:50:20.474Z,7.50
2023-01-13T21:52:48.571Z,7.53
2023-01-13T21:55:28.896Z,7.48
2023-01-13T21:58:15.044Z,7.40
2023-01-13T22:00:44.170Z,7.39
2023-01-13T22:03:12.497Z,7.37
2023-01-13T22:05:39.741Z,7.37
2023-01-13T22:08:07.250Z,7.36
2023-01-13T22:10:34.349Z,7.39
2023-01-13T22:13:22.668Z,7.34
2023-01-13T22:15:49.234Z,7.31
2023-01-13T22:18:18.057Z,7.36
2023-01-13T22:20:44.614Z,7.28
2023-01-13T22:23:11.101Z,7.28
2023-01-13T22:25:37.636Z,7.26
2023-01-13T22:28:06.130Z,7.15
2023-01-13T22:30:33.335Z,7.17
2023-01-13T22:33:00.185Z,7.18
2023-01-13T22:35:26.967Z,7.11
2023-01-13T22:37:53.462Z,7.05
2023-01-13T22:40:20.242Z,7.00
2023-01-13T22:42:46.720Z,7.03
2023-01-13T22:45:14.019Z,6.99
2023-01-13T22:47:40.759Z,6.95
2023-01-13T22:50:09.272Z,6.98
2023-01-13T22:52:35.797Z,6.89
2023-01-13T22:55:02.387Z,6.84
2023-01-13T22:57:36.407Z,6.84
2023-01-13T23:00:10.229Z,6.82
2023-01-13T23:02:38.267Z,6.80
2023-01-13T23:05:05.294Z,6.75
2023-01-13T23:07:31.796Z,6.77
2023-01-13T23:09:58.357Z,6.74
2023-01-13T23:12:24.948Z,6.90
2023-01-13T23:14:51.420Z,6.75
2023-01-13T23:17:17.961Z,6.80
2023-01-13T23:19:44.473Z,6.79
2023-01-13T23:22:11.050Z,6.73
2023-01-13T23:24:37.543Z,6.73
2023-01-13T23:27:04.116Z,6.68
2023-01-13T23:29:30.822Z,6.69
2023-01-13T23:31:57.317Z,6.77
2023-01-13T23:34:23.843Z,6.76
2023-01-13T23:36:50.417Z,6.70
2023-01-13T23:39:16.912Z,6.74
2023-01-13T23:41:43.418Z,6.72
2023-01-13T23:44:10.077Z,6.74
2023-01-13T23:46:36.840Z,6.64
2023-01-13T23:49:04.008Z,6.65
2023-01-13T23:51:30.682Z,6.61
2023-01-13T23:53:58.978Z,6.62
2023-01-13T23:56:31.177Z,6.57
2023-01-13T23:58:58.706Z,6.55
